Home > Products > Valid Products > TAF

000
FTUS43 KPAH 011720
TAFPAH
TAF
KPAH 011720Z 0118/0218 22005KT P6SM SCT020 BKN040
      TEMPO 0118/0120 BKN020
     FM020000 28005KT P6SM SCT250
     FM021200 33004KT P6SM SCT015 BKN050=



000
FTUS43 KPAH 011720
TAFCGI
TAF
KCGI 011720Z 0118/0218 25006KT P6SM SCT040
      TEMPO 0118/0120 BKN028
     FM020000 29005KT P6SM SCT250
     FM021200 35004KT P6SM SCT015 BKN050=



000
FTUS43 KPAH 011720
TAFEVV
TAF
KEVV 011720Z 0118/0218 22009KT P6SM SCT030 BKN080
     FM012000 24006KT P6SM VCSH SCT035 BKN060
     FM020400 30007KT P6SM FEW050 SCT150
     FM021200 28004KT P6SM SCT015 BKN025=



000
FTUS43 KPAH 011628 AAA
TAFCGI
TAF AMD
KCGI 011628Z 0116/0212 25007KT P6SM BKN030
      TEMPO 0116/0118 BKN028
     FM011800 28007KT P6SM FEW040
     FM020300 32005KT P6SM FEW150=



000
FTUS43 KPAH 011628 AAA
TAFCGI
TAF AMD
KCGI 011628Z 0116/0212 25007KT P6SM BKN030
      TEMPO 0116/0118 BKN028
     FM011800 28007KT P6SM FEW040
     FM020300 32005KT P6SM FEW150=



000
FTUS43 KPAH 011120
TAFCGI
TAF
KCGI 011120Z 0112/0212 VRB05KT P6SM SCT015 BKN100
      TEMPO 0112/0115 BKN015
     FM011500 24005KT P6SM SCT025 SCT100
     FM020300 32005KT P6SM FEW150=



000
FTUS43 KPAH 011120
TAFEVV
TAF
KEVV 011120Z 0112/0212 VRB03KT P6SM SCT015 BKN100
      TEMPO 0112/0116 BKN015
     FM011600 22005KT P6SM SCT020 BKN100
     FM012300 26008KT P6SM VCSH BKN040
     FM020600 30007KT P6SM FEW050 SCT150=



000
FTUS43 KPAH 011120
TAFPAH
TAF
KPAH 011120Z 0112/0212 VRB05KT P6SM SCT015 BKN100
      TEMPO 0112/0116 BKN015
     FM011600 24007KT P6SM SCT025 SCT100
     FM020400 30005KT P6SM FEW150=



000
FTUS43 KPAH 010843 AAB
TAFPAH
TAF AMD
KPAH 010843Z 0109/0206 20003KT 6SM BR SCT015 OVC040
      TEMPO 0109/0111 4SM BR BKN012
     FM011400 24005KT P6SM BKN025
     FM011800 24007KT P6SM BKN035
     FM020200 30005KT P6SM FEW150=



000
FTUS43 KPAH 010843 AAB
TAFPAH
TAF AMD
KPAH 010843Z 0109/0206 20003KT 6SM BR SCT015 OVC040
      TEMPO 0109/0111 4SM BR BKN012
     FM011400 24005KT P6SM BKN025
     FM011800 24007KT P6SM BKN035
     FM020200 30005KT P6SM FEW150=



000
FTUS43 KPAH 010520
TAFCGI
TAF
KCGI 010520Z 0106/0206 19003KT P6SM VCSH FEW060 BKN250
     FM010900 21003KT 4SM BR FEW250
     FM011400 24004KT P6SM SCT025
     FM011700 25008KT P6SM SCT035
      TEMPO 0117/0120 BKN035
     FM020100 32005KT P6SM FEW150=



000
FTUS43 KPAH 010520
TAFPAH
TAF
KPAH 010520Z 0106/0206 19003KT 6SM BR FEW060 BKN250
     FM010800 20003KT 4SM BR FEW250
     FM011400 24005KT P6SM BKN025
     FM011800 24007KT P6SM BKN035
     FM020200 30005KT P6SM FEW150=



000
FTUS43 KPAH 010520
TAFEVV
TAF
KEVV 010520Z 0106/0206 18003KT P6SM VCSH SCT050 BKN080
     FM010900 00000KT 5SM BR SCT250
     FM011400 22005KT P6SM BKN025
     FM011700 23008KT P6SM BKN035
     FM012300 26008KT P6SM VCSH BKN040
     FM020400 30007KT P6SM FEW050 SCT150=



000
FTUS43 KPAH 302339
TAFEVV
TAF
KEVV 302339Z 0100/0124 17007KT P6SM VCSH FEW040 BKN100
     FM010500 00000KT 5SM BR SCT040
      TEMPO 0109/0113 1SM BR SCT005
     FM011500 24004KT 6SM BR BKN020
     FM011900 26007KT P6SM BKN035=



000
FTUS43 KPAH 302339
TAFCGI
TAF
KCGI 302339Z 0100/0124 19006KT P6SM VCSH SCT030
     FM010300 19003KT P6SM FEW035 SCT150
     FM010800 21003KT 4SM BR SKC
      TEMPO 0110/0114 00000KT 1SM BR
     FM011500 VRB04KT P6SM SCT025
     FM011800 27005KT P6SM BKN035=



000
FTUS43 KPAH 302339
TAFPAH
TAF
KPAH 302339Z 0100/0124 18005KT P6SM SCT035
     FM010600 20003KT 5SM BR FEW005
      TEMPO 0109/0113 00000KT 1SM BR BKN005
     FM011500 26005KT P6SM SCT025
      TEMPO 0116/0119 BKN030=



000
FTUS43 KPAH 302045 AAB
TAFEVV
TAF AMD
KEVV 302045Z 3021/0118 15007KT P6SM SCT015 OVC090
     FM010200 16006KT P6SM VCTS BKN030CB
     FM010800 15003KT 6SM BR SCT012 BKN025
     FM011500 25004KT 6SM HZ BKN025=



000
FTUS43 KPAH 302045 AAB
TAFEVV
TAF AMD
KEVV 302045Z 3021/0118 15007KT P6SM SCT015 OVC090
     FM010200 16006KT P6SM VCTS BKN030CB
     FM010800 15003KT 6SM BR SCT012 BKN025
     FM011500 25004KT 6SM HZ BKN025=



000
FTUS43 KPAH 301829 AAA
TAFEVV
TAF AMD
KEVV 301829Z 3018/0118 15007KT P6SM BKN011
      TEMPO 3019/3020 SCT011 BKN025
     FM302000 16007KT P6SM SCT015 BKN030
     FM010000 16006KT P6SM VCTS BKN030CB
     FM010800 15003KT 6SM BR SCT012 BKN025
     FM011500 25004KT 6SM HZ BKN025=



000
FTUS43 KPAH 301829 AAA
TAFEVV
TAF AMD
KEVV 301829Z 3018/0118 15007KT P6SM BKN011
      TEMPO 3019/3020 SCT011 BKN025
     FM302000 16007KT P6SM SCT015 BKN030
     FM010000 16006KT P6SM VCTS BKN030CB
     FM010800 15003KT 6SM BR SCT012 BKN025
     FM011500 25004KT 6SM HZ BKN025=



000
FTUS43 KPAH 301720
TAFPAH
TAF
KPAH 301720Z 3018/0118 17007G17KT P6SM SCT035 BKN200
     FM010200 17005KT P6SM VCTS BKN040CB
     FM010600 15003KT 6SM BR SCT012 BKN025
     FM011400 22006KT P6SM BKN025=



000
FTUS43 KPAH 301720
TAFCGI
TAF
KCGI 301720Z 3018/0118 17008KT P6SM FEW035 BKN200
     FM010100 17007KT P6SM VCTS BKN040CB
     FM010500 16004KT 6SM BR SCT012 BKN025
     FM011400 23005KT P6SM BKN025=



000
FTUS43 KPAH 301720
TAFEVV
TAF
KEVV 301720Z 3018/0118 15007KT P6SM -SHRA BKN006
     FM302000 16007KT P6SM SCT015 BKN030
     FM010000 16006KT P6SM VCTS BKN030CB
     FM010800 15003KT 6SM BR SCT012 BKN025
     FM011500 25004KT 6SM HZ BKN025=



000
FTUS43 KPAH 301720
TAFCGI
TAF
KCGI 301720Z 3018/0118 17008KT P6SM FEW035 BKN200
     FM010100 17007KT P6SM VCTS BKN040CB
     FM010500 16004KT 6SM BR SCT012 BKN025
     FM011400 23005KT P6SM BKN025=



000
FTUS43 KPAH 301720
TAFPAH
TAF
KPAH 301720Z 3018/0118 17007G17KT P6SM SCT035 BKN200
     FM010200 17005KT P6SM VCTS BKN040CB
     FM010600 15003KT 6SM BR SCT012 BKN025
     FM011400 22006KT P6SM BKN025=



000
FTUS43 KPAH 301720
TAFEVV
TAF
KEVV 301720Z 3018/0118 15007KT P6SM -SHRA BKN006
     FM302000 16007KT P6SM SCT015 BKN030
     FM010000 16006KT P6SM VCTS BKN030CB
     FM010800 15003KT 6SM BR SCT012 BKN025
     FM011500 25004KT 6SM HZ BKN025=



000
FTUS43 KPAH 301611 AAC
TAFEVV
TAF AMD
KEVV 301611Z 3016/0112 12010KT P6SM BKN004
      TEMPO 3016/3018 SCT004 OVC008
     FM301800 15008G18KT P6SM SCT015 BKN030
     FM010000 18006KT P6SM SCT050 BKN150 PROB30 0102/0108 4SM TSRA
      BKN035CB
     FM010800 20003KT 4SM BR BKN006=



000
FTUS43 KPAH 301420 AAB
TAFEVV
TAF AMD
KEVV 301420Z 3014/0112 11008KT P6SM -SHRA SCT009 BKN040
      TEMPO 3014/3016 2SM SHRA BR BKN009
     FM301600 17012G19KT P6SM SCT030 BKN150
     FM010000 18006KT P6SM SCT050 BKN150 PROB30 0102/0108 4SM TSRA
      BKN035CB
     FM010800 20003KT 4SM BR BKN006=



000
FTUS43 KPAH 301419 AAB
TAFPAH
TAF AMD
KPAH 301419Z 3014/0112 12009KT P6SM VCSH SCT006 BKN035
     FM301600 15010G20KT P6SM SCT035 BKN150
     FM302300 18006KT P6SM SCT040 BKN250 PROB30 0101/0107 4SM TSRA
      BKN035CB
     FM010700 22003KT 4SM BR BKN007=



000
FTUS43 KPAH 301218 AAA
TAFEVV
TAF AMD
KEVV 301218Z 3012/0112 07006KT P6SM -SHRA SCT050 OVC100
     FM301400 10010KT 5SM -SHRA BR BKN015 OVC080
      TEMPO 3014/3017 2SM TSRA BR BKN009CB
     FM301700 17012G19KT P6SM SCT030 BKN150
     FM010000 18006KT P6SM SCT050 BKN150 PROB30 0102/0108 4SM TSRA
      BKN035CB
     FM010800 20003KT 4SM BR BKN006=



000
FTUS43 KPAH 301217 AAB
TAFPAH
TAF AMD
KPAH 301217Z 3012/0112 12010KT 4SM -SHRA BR SCT015 OVC080
      TEMPO 3012/3015 2SM -TSRA BR BKN009CB
     FM301500 15012G18KT P6SM SCT025 BKN150
     FM302300 18006KT P6SM SCT040 BKN250 PROB30 0101/0107 4SM TSRA
      BKN035CB
     FM010700 22003KT 4SM BR BKN007=



000
FTUS43 KPAH 301217 AAB
TAFPAH
TAF AMD
KPAH 301217Z 3012/0112 12010KT 4SM -SHRA BR SCT015 OVC080
      TEMPO 3012/3015 2SM -TSRA BR BKN009CB
     FM301500 15012G18KT P6SM SCT025 BKN150
     FM302300 18006KT P6SM SCT040 BKN250 PROB30 0101/0107 4SM TSRA
      BKN035CB
     FM010700 22003KT 4SM BR BKN007=



000
FTUS43 KPAH 301216 AAA
TAFCGI
TAF AMD
KCGI 301216Z 3012/0112 12010KT 5SM -SHRA BR SCT015 OVC080
      TEMPO 3012/3014 3SM -TSRA BR BKN007CB
     FM301400 15012G18KT P6SM SCT025 BKN150
     FM302200 18006KT P6SM SCT040 BKN250 PROB30 0100/0106 4SM TSRA
      BKN035CB
     FM010600 22003KT 4SM BR BKN007=



000
FTUS43 KPAH 301216 AAA
TAFCGI
TAF AMD
KCGI 301216Z 3012/0112 12010KT 5SM -SHRA BR SCT015 OVC080
      TEMPO 3012/3014 3SM -TSRA BR BKN007CB
     FM301400 15012G18KT P6SM SCT025 BKN150
     FM302200 18006KT P6SM SCT040 BKN250 PROB30 0100/0106 4SM TSRA
      BKN035CB
     FM010600 22003KT 4SM BR BKN007=



000
FTUS43 KPAH 301128
TAFPAH
TAF
KPAH 301128Z 3012/0112 12010KT 4SM -SHRA BR BKN005 OVC050
      TEMPO 3012/3015 2SM TSRA BR BKN015CB
     FM301500 15012G18KT P6SM SCT025 BKN150
     FM302300 18006KT P6SM SCT040 BKN250 PROB30 0101/0107 4SM TSRA
      BKN035CB
     FM010700 22003KT 4SM BR BKN007=



000
FTUS43 KPAH 301128
TAFCGI
TAF
KCGI 301128Z 3012/0112 12010KT 4SM -SHRA BR BKN005 OVC050
      TEMPO 3012/3014 2SM TSRA BR BKN015CB
     FM301400 15012G18KT P6SM SCT025 BKN150
     FM302200 18006KT P6SM SCT040 BKN250 PROB30 0100/0106 4SM TSRA
      BKN035CB
     FM010600 22003KT 4SM BR BKN007=



000
FTUS43 KPAH 301128
TAFEVV
TAF
KEVV 301128Z 3012/0112 07006KT P6SM -SHRA SCT050 OVC100
     FM301400 10010KT 5SM -SHRA BR BKN005 OVC040
      TEMPO 3014/3017 2SM TSRA BR BKN015CB
     FM301700 17012G19KT P6SM SCT030 BKN150
     FM010000 18006KT P6SM SCT050 BKN150 PROB30 0102/0108 4SM TSRA
      BKN035CB
     FM010800 20003KT 4SM BR BKN006=



000
FTUS43 KPAH 301128
TAFPAH
TAF
KPAH 301128Z 3012/0112 12010KT 4SM -SHRA BR BKN005 OVC050
      TEMPO 3012/3015 2SM TSRA BR BKN015CB
     FM301500 15012G18KT P6SM SCT025 BKN150
     FM302300 18006KT P6SM SCT040 BKN250 PROB30 0101/0107 4SM TSRA
      BKN035CB
     FM010700 22003KT 4SM BR BKN007=



000
FTUS43 KPAH 301128
TAFEVV
TAF
KEVV 301128Z 3012/0112 07006KT P6SM -SHRA SCT050 OVC100
     FM301400 10010KT 5SM -SHRA BR BKN005 OVC040
      TEMPO 3014/3017 2SM TSRA BR BKN015CB
     FM301700 17012G19KT P6SM SCT030 BKN150
     FM010000 18006KT P6SM SCT050 BKN150 PROB30 0102/0108 4SM TSRA
      BKN035CB
     FM010800 20003KT 4SM BR BKN006=



000
FTUS43 KPAH 301128
TAFCGI
TAF
KCGI 301128Z 3012/0112 12010KT 4SM -SHRA BR BKN005 OVC050
      TEMPO 3012/3014 2SM TSRA BR BKN015CB
     FM301400 15012G18KT P6SM SCT025 BKN150
     FM302200 18006KT P6SM SCT040 BKN250 PROB30 0100/0106 4SM TSRA
      BKN035CB
     FM010600 22003KT 4SM BR BKN007=



000
FTUS43 KPAH 301019 AAB
TAFCGI
TAF AMD
KCGI 301019Z 3010/0106 12012G18KT 5SM -SHRA BR BKN015 OVC060
      TEMPO 3010/3013 2SM TSRA BR BKN007CB
     FM301600 20012G19KT P6SM SCT025 BKN150
     FM302200 18006KT P6SM SCT040 BKN250 PROB30 3023/0103 4SM TSRA
      BKN035CB=



000
FTUS43 KPAH 300923 AAB
TAFPAH
TAF AMD
KPAH 300923Z 3009/0106 09008KT 6SM -SHRA BR SCT015 OVC080
      TEMPO 3010/3014 2SM TSRA BR BKN009CB
     FM301600 17010G16KT P6SM SCT025 BKN120
     FM302300 18006KT P6SM SCT040 BKN250 PROB30 0100/0106 4SM TSRA
      BKN035CB=



000
FTUS43 KPAH 300923 AAB
TAFPAH
TAF AMD
KPAH 300923Z 3009/0106 09008KT 6SM -SHRA BR SCT015 OVC080
      TEMPO 3010/3014 2SM TSRA BR BKN009CB
     FM301600 17010G16KT P6SM SCT025 BKN120
     FM302300 18006KT P6SM SCT040 BKN250 PROB30 0100/0106 4SM TSRA
      BKN035CB=



000
FTUS43 KPAH 300824 AAA
TAFCGI
TAF AMD
KCGI 300824Z 3008/0106 12012G18KT 5SM -SHRA BR SCT015 OVC060
      TEMPO 3009/3013 2SM TSRA BR BKN009CB
     FM301600 20012G19KT P6SM SCT025 BKN150
     FM302200 18006KT P6SM SCT040 BKN250 PROB30 3023/0103 4SM TSRA
      BKN035CB=



000
FTUS43 KPAH 300520
TAFCGI
TAF
KCGI 300520Z 3006/0106 09008KT P6SM -SHRA FEW045 OVC150
     FM300800 12012G18KT 6SM -SHRA BR BKN015
      TEMPO 3009/3013 2SM TSRA BR BKN009CB
     FM301600 20012G19KT P6SM SCT025 BKN150
     FM302200 18006KT P6SM SCT040 BKN250 PROB30 3023/0103 4SM TSRA
      BKN035CB=



000
FTUS43 KPAH 300520
TAFPAH
TAF
KPAH 300520Z 3006/0106 08007KT P6SM -SHRA SCT045 OVC150
     FM300900 09008KT 6SM -SHRA BR BKN015
      TEMPO 3010/3014 2SM TSRA BR BKN009CB
     FM301600 17010G16KT P6SM SCT025 BKN120
     FM302300 18006KT P6SM SCT040 BKN250 PROB30 0100/0106 4SM TSRA
      BKN035CB=



000
FTUS43 KPAH 300520
TAFCGI
TAF
KCGI 300520Z 3006/0106 09008KT P6SM -SHRA FEW045 OVC150
     FM300800 12012G18KT 6SM -SHRA BR BKN015
      TEMPO 3009/3013 2SM TSRA BR BKN009CB
     FM301600 20012G19KT P6SM SCT025 BKN150
     FM302200 18006KT P6SM SCT040 BKN250 PROB30 3023/0103 4SM TSRA
      BKN035CB=



000
FTUS43 KPAH 300520
TAFEVV
TAF
KEVV 300520Z 3006/0106 07006KT P6SM -SHRA SCT035 OVC070
     FM301100 10010KT 5SM -SHRA BR BKN015 OVC040
      TEMPO 3012/3016 2SM TSRA BR BKN009CB
     FM301800 17012G19KT P6SM SCT030 BKN150
     FM010000 18006KT P6SM SCT050 BKN150 PROB30 0100/0106 4SM TSRA
      BKN035CB=



000
FTUS43 KPAH 300202 AAA
TAFCGI
TAF AMD
KCGI 300202Z 3002/3024 08008KT P6SM FEW045 OVC070
     FM300700 11014G22KT 6SM -SHRA BR BKN015
      TEMPO 3009/3013 2SM TSRA BR BKN009CB
     FM301600 20012G19KT P6SM SCT015 BKN035=



000
FTUS43 KPAH 292339
TAFEVV
TAF
KEVV 292339Z 3000/3024 06003KT P6SM BKN100
     FM300300 07004KT 6SM -SHRA BR OVC080
     FM300500 07008KT P6SM VCSH SCT035 OVC060
     FM301200 09011KT 5SM -SHRA BR BKN015 OVC040
      TEMPO 3013/3017 2SM TSRA BR BKN009CB
     FM301900 19010KT P6SM SCT025 BKN120=



000
FTUS43 KPAH 292339
TAFCGI
TAF
KCGI 292339Z 3000/3024 09007KT 6SM -SHRA BR OVC080
     FM300200 13012G18KT P6SM VCSH SCT025 OVC070
     FM300700 11014G22KT 6SM -SHRA BR BKN015
      TEMPO 3009/3013 2SM TSRA BR BKN009CB
     FM301600 20012G19KT P6SM SCT015 BKN035=



000
FTUS43 KPAH 292339
TAFPAH
TAF
KPAH 292339Z 3000/3024 09005KT 6SM -SHRA BR OVC080
     FM300200 09005KT P6SM VCSH SCT030 OVC080
     FM300900 09008KT 5SM -SHRA BR BKN025
      TEMPO 3009/3013 2SM TSRA BR BKN012CB
     FM301600 20012G19KT P6SM SCT025 BKN040=



000
FTUS43 KPAH 291734
TAFEVV
TAF
KEVV 291734Z 2918/3018 05007KT P6SM OVC150
     FM292200 07005KT P6SM SCT050 OVC100
      TEMPO 2922/2924 -SHRA
     FM300800 08007KT 6SM -SHRA BR SCT025 OVC050
     FM301200 10010KT 4SM -SHRA BR OVC020=



000
FTUS43 KPAH 291734
TAFPAH
TAF
KPAH 291734Z 2918/3018 08006KT P6SM -SHRA VCTS SCT040CB OVC090
      TEMPO 2919/2921 3SM SHRA BR BKN035
     FM292200 08007KT P6SM SCT050 BKN100
     FM300400 10008KT 6SM -SHRA BR BKN040
     FM300900 13008G18KT 5SM -SHRA BR BKN025 PROB30 3009/3015 2SM
      TSRA BR BKN012CB=



000
FTUS43 KPAH 291734
TAFCGI
TAF
KCGI 291734Z 2918/3018 08008KT P6SM -SHRA VCTS SCT035CB OVC080
      TEMPO 2918/2920 3SM SHRA BR BKN030
     FM292100 08007KT P6SM SCT050 BKN100
     FM300300 12011KT 6SM -SHRA BR BKN030
     FM300900 14010G20KT 4SM -SHRA BR BKN020 PROB30 3009/3015 2SM
      TSRA BR BKN007CB=



000
FTUS43 KPAH 291734
TAFEVV
TAF
KEVV 291734Z 2918/3018 05007KT P6SM OVC150
     FM292200 07005KT P6SM SCT050 OVC100
      TEMPO 2922/2924 -SHRA
     FM300800 08007KT 6SM -SHRA BR SCT025 OVC050
     FM301200 10010KT 4SM -SHRA BR OVC020=



000
FTUS43 KPAH 291734
TAFCGI
TAF
KCGI 291734Z 2918/3018 08008KT P6SM -SHRA VCTS SCT035CB OVC080
      TEMPO 2918/2920 3SM SHRA BR BKN030
     FM292100 08007KT P6SM SCT050 BKN100
     FM300300 12011KT 6SM -SHRA BR BKN030
     FM300900 14010G20KT 4SM -SHRA BR BKN020 PROB30 3009/3015 2SM
      TSRA BR BKN007CB=



000
FTUS43 KPAH 291734
TAFPAH
TAF
KPAH 291734Z 2918/3018 08006KT P6SM -SHRA VCTS SCT040CB OVC090
      TEMPO 2919/2921 3SM SHRA BR BKN035
     FM292200 08007KT P6SM SCT050 BKN100
     FM300400 10008KT 6SM -SHRA BR BKN040
     FM300900 13008G18KT 5SM -SHRA BR BKN025 PROB30 3009/3015 2SM
      TSRA BR BKN012CB=



000
FTUS43 KPAH 291555 AAB
TAFPAH
TAF AMD
KPAH 291555Z 2916/3012 07007KT P6SM SCT050 BKN100
      TEMPO 2918/2922 -SHRA BKN035
     FM292200 08008KT P6SM VCSH SCT025 OVC050
     FM300400 13010KT 4SM -SHRA OVC025
     FM300800 15012G20KT 3SM -SHRA BR OVC020=



000
FTUS43 KPAH 291554 AAA
TAFCGI
TAF AMD
KCGI 291554Z 2916/3012 07007KT P6SM SCT050 BKN100
      TEMPO 2917/2921 -SHRA BKN035
     FM292100 08008KT P6SM VCSH SCT025 OVC050
     FM300400 13010KT 4SM -SHRA OVC025
     FM300800 15012G20KT 3SM -SHRA BR OVC020=



000
FTUS43 KPAH 291120
TAFEVV
TAF
KEVV 291120Z 2912/3012 05004KT P6SM SCT100 BKN250
     FM291800 06007KT P6SM SCT050 BKN100
     FM300000 07008KT P6SM VCSH SCT025 OVC050
     FM300600 08009KT 4SM -SHRA BR OVC025
     FM301000 09010KT 3SM -SHRA BR OVC020=



000
FTUS43 KPAH 291120
TAFPAH
TAF
KPAH 291120Z 2912/3012 04006KT P6SM SCT100 BKN250
     FM291500 07007KT P6SM SCT050 BKN100
     FM292100 08008KT P6SM VCSH SCT025 OVC050
     FM300400 13010KT 4SM -SHRA OVC025
     FM300800 15012G20KT 3SM -SHRA BR OVC020=



000
FTUS43 KPAH 291120
TAFCGI
TAF
KCGI 291120Z 2912/3012 05006KT P6SM SCT100 BKN250
     FM291500 07007KT P6SM SCT050 BKN100
     FM292100 08008KT P6SM VCSH SCT025 OVC050
     FM300400 13010KT 4SM -SHRA OVC025
     FM300800 15012G20KT 3SM -SHRA BR OVC020=



000
FTUS43 KPAH 291120
TAFCGI
TAF
KCGI 291120Z 2912/3012 05006KT P6SM SCT100 BKN250
     FM291500 07007KT P6SM SCT050 BKN100
     FM292100 08008KT P6SM VCSH SCT025 OVC050
     FM300400 13010KT 4SM -SHRA OVC025
     FM300800 15012G20KT 3SM -SHRA BR OVC020=



000
FTUS43 KPAH 291120
TAFEVV
TAF
KEVV 291120Z 2912/3012 05004KT P6SM SCT100 BKN250
     FM291800 06007KT P6SM SCT050 BKN100
     FM300000 07008KT P6SM VCSH SCT025 OVC050
     FM300600 08009KT 4SM -SHRA BR OVC025
     FM301000 09010KT 3SM -SHRA BR OVC020=



000
FTUS43 KPAH 291120
TAFPAH
TAF
KPAH 291120Z 2912/3012 04006KT P6SM SCT100 BKN250
     FM291500 07007KT P6SM SCT050 BKN100
     FM292100 08008KT P6SM VCSH SCT025 OVC050
     FM300400 13010KT 4SM -SHRA OVC025
     FM300800 15012G20KT 3SM -SHRA BR OVC020=



000
FTUS43 KPAH 290520
TAFEVV
TAF
KEVV 290520Z 2906/3006 VRB03KT P6SM SKC
     FM291500 07007KT P6SM BKN080 OVC200
     FM292300 08008KT P6SM VCSH OVC050=



000
FTUS43 KPAH 290520
TAFCGI
TAF
KCGI 290520Z 2906/3006 VRB03KT P6SM BKN250
     FM291500 07007KT P6SM BKN080 OVC200
     FM292100 08008KT P6SM VCSH OVC050=



000
FTUS43 KPAH 290520
TAFPAH
TAF
KPAH 290520Z 2906/3006 VRB03KT P6SM SKC
     FM291400 07007KT P6SM BKN080 OVC200
     FM292100 08008KT P6SM VCSH OVC050=



000
FTUS43 KPAH 290040 RRA
TAFEVV
TAF
KEVV 290040Z 2901/2924 VRB03KT P6SM SKC
     FM290800 VRB03KT P6SM SCT080 BKN150=



000
FTUS43 KPAH 290040 RRA
TAFCGI
TAF
KCGI 290040Z 2901/2924 VRB03KT P6SM SCT060 BKN120=



000
FTUS43 KPAH 290040 RRA
TAFPAH
TAF
KPAH 290040Z 2901/2924 VRB03KT P6SM SKC
     FM290700 VRB03KT P6SM SCT060 BKN120=



    US Dept of Commerce
    National Oceanic and Atmospheric Administration
    National Weather Service
    1325 East West Highway
    Silver Spring, MD 20910
    Page Author: NWS Internet Services Team
Disclaimer
Information Quality
Credits
Glossary
Privacy Policy
Freedom of Information Act (FOIA)
About Us
Career Opportunities